createdAt,value
2023-01-17T00:00:01.031Z,5.03
2023-01-17T00:05:21.225Z,5.37
2023-01-17T00:10:26.008Z,8.33
2023-01-17T00:15:31.356Z,8.00
2023-01-17T00:20:51.546Z,8.13
2023-01-17T00:26:06.744Z,6.30
2023-01-17T00:31:13.842Z,5.10
2023-01-17T00:36:15.657Z,4.00
2023-01-17T00:41:17.598Z,5.27
2023-01-17T00:46:39.991Z,3.20
2023-01-17T00:52:00.266Z,3.80
2023-01-17T00:57:21.506Z,5.13
2023-01-17T01:02:43.829Z,3.43
2023-01-17T01:08:04.599Z,2.80
2023-01-17T01:13:24.781Z,3.20
2023-01-17T01:18:46.447Z,1.50
2023-01-17T01:24:06.873Z,1.70
2023-01-17T01:29:27.256Z,3.37
2023-01-17T01:34:31.698Z,2.97
2023-01-17T01:39:34.562Z,2.63
2023-01-17T01:44:45.476Z,1.80
2023-01-17T01:49:51.530Z,1.87
2023-01-17T01:54:59.041Z,1.70
2023-01-17T02:00:06.469Z,1.70
2023-01-17T02:05:31.131Z,2.23
2023-01-17T02:10:34.924Z,2.30
2023-01-17T02:15:50.412Z,2.07
2023-01-17T02:21:10.048Z,1.80
2023-01-17T02:26:44.779Z,2.70
2023-01-17T02:31:52.589Z,0.83
2023-01-17T02:37:06.483Z,1.00
2023-01-17T02:42:15.315Z,0.87
2023-01-17T02:47:24.123Z,0.83
2023-01-17T02:52:43.135Z,0.63
2023-01-17T02:58:00.388Z,0.70
2023-01-17T03:03:15.060Z,0.60
2023-01-17T03:08:19.194Z,0.63
2023-01-17T03:13:22.127Z,0.70
2023-01-17T03:18:26.593Z,0.87
2023-01-17T03:23:29.559Z,0.70
2023-01-17T03:28:32.437Z,0.70
2023-01-17T03:33:37.500Z,0.83
2023-01-17T03:38:40.362Z,0.90
2023-01-17T03:43:43.263Z,0.70
2023-01-17T03:48:47.473Z,0.63
2023-01-17T03:53:51.982Z,0.70
2023-01-17T03:58:54.877Z,1.00
2023-01-17T04:03:59.155Z,1.87
2023-01-17T04:09:01.993Z,0.90
2023-01-17T04:14:04.863Z,1.00
2023-01-17T04:19:10.450Z,1.07
2023-01-17T04:24:13.359Z,1.80
2023-01-17T04:29:16.217Z,1.57
2023-01-17T04:34:20.448Z,1.70
2023-01-17T04:39:23.337Z,1.87
2023-01-17T04:44:26.218Z,2.70
2023-01-17T04:49:30.457Z,2.23
2023-01-17T04:54:33.314Z,1.83
2023-01-17T04:59:36.220Z,2.70
2023-01-17T05:04:40.698Z,1.70
2023-01-17T05:09:44.158Z,1.63
2023-01-17T05:14:47.086Z,1.30
2023-01-17T05:19:52.552Z,1.37
2023-01-17T05:24:55.444Z,1.20
2023-01-17T05:29:58.380Z,1.50
2023-01-17T05:35:02.664Z,1.00
2023-01-17T05:40:09.705Z,1.10
2023-01-17T05:45:16.708Z,1.57
2023-01-17T05:50:22.642Z,2.80
2023-01-17T05:55:27.064Z,1.47
2023-01-17T06:00:30.853Z,1.30
2023-01-17T06:05:35.461Z,6.63
2023-01-17T06:10:38.368Z,1.40
2023-01-17T06:15:41.766Z,1.43
2023-01-17T06:20:46.274Z,1.40
2023-01-17T06:25:49.595Z,1.77
2023-01-17T06:30:52.521Z,2.30
2023-01-17T06:35:56.750Z,2.80
2023-01-17T06:41:00.491Z,1.90
2023-01-17T06:46:03.594Z,1.43
2023-01-17T06:51:07.899Z,1.30
2023-01-17T06:56:11.342Z,1.60
2023-01-17T07:01:14.552Z,3.00
2023-01-17T07:06:19.043Z,5.50
2023-01-17T07:11:22.059Z,2.53
2023-01-17T07:16:25.014Z,1.83
2023-01-17T07:21:29.280Z,2.30
2023-01-17T07:26:32.177Z,3.47
2023-01-17T07:31:36.826Z,1.67
2023-01-17T07:36:41.174Z,3.10
2023-01-17T07:41:44.086Z,2.23
2023-01-17T07:46:48.038Z,2.03
2023-01-17T07:51:52.339Z,1.70
2023-01-17T07:56:55.229Z,1.90
2023-01-17T08:01:58.163Z,3.47
2023-01-17T08:07:03.104Z,1.40
2023-01-17T08:12:06.491Z,1.63
2023-01-17T08:17:15.153Z,2.03
2023-01-17T08:22:19.556Z,3.30
2023-01-17T08:27:22.480Z,2.90
2023-01-17T08:32:25.334Z,2.50
2023-01-17T08:37:29.697Z,2.47
2023-01-17T08:42:37.217Z,1.93
2023-01-17T08:47:40.104Z,2.43
2023-01-17T08:52:44.342Z,3.47
2023-01-17T08:57:47.936Z,2.30
2023-01-17T09:02:53.163Z,3.33
2023-01-17T09:07:57.853Z,1.67
2023-01-17T09:13:00.725Z,1.70
2023-01-17T09:18:03.585Z,2.17
2023-01-17T09:23:07.813Z,2.70
2023-01-17T09:28:10.970Z,1.50
2023-01-17T09:33:13.884Z,1.43
2023-01-17T09:38:18.169Z,2.43
2023-01-17T09:43:27.669Z,2.90
2023-01-17T09:48:37.202Z,1.87
2023-01-17T09:53:43.940Z,4.87
2023-01-17T09:58:58.675Z,2.47
2023-01-17T10:04:20.751Z,2.50
2023-01-17T10:09:56.467Z,1.23
2023-01-17T10:15:23.023Z,1.47
2023-01-17T10:20:47.745Z,2.80
2023-01-17T10:25:52.574Z,2.80
2023-01-17T10:31:02.112Z,2.27
2023-01-17T10:36:10.547Z,5.07
2023-01-17T10:41:22.587Z,3.60
2023-01-17T10:46:31.439Z,3.07
2023-01-17T10:51:59.874Z,1.80
2023-01-17T10:57:04.161Z,3.30
2023-01-17T11:02:19.970Z,3.80
2023-01-17T11:07:25.289Z,4.07
2023-01-17T11:12:31.978Z,1.90
2023-01-17T11:17:36.853Z,3.20
2023-01-17T11:22:40.036Z,2.10
2023-01-17T11:27:59.492Z,2.83
2023-01-17T11:33:06.152Z,1.60
2023-01-17T11:38:18.777Z,1.30
2023-01-17T11:43:25.405Z,2.60
2023-01-17T11:48:35.289Z,2.83
2023-01-17T11:53:41.661Z,2.10
2023-01-17T11:58:47.267Z,2.47
2023-01-17T12:04:10.234Z,8.90
2023-01-17T12:09:23.873Z,1.53
2023-01-17T12:14:36.879Z,2.07
2023-01-17T12:20:00.882Z,2.30
2023-01-17T12:25:18.913Z,2.23
2023-01-17T12:30:43.952Z,2.43
2023-01-17T12:35:52.905Z,1.70
2023-01-17T12:41:02.785Z,1.67
2023-01-17T12:46:13.095Z,4.73
2023-01-17T12:51:23.407Z,4.03
2023-01-17T12:56:31.384Z,2.70
2023-01-17T13:01:39.807Z,3.20
2023-01-17T13:06:54.613Z,3.50
2023-01-17T13:12:02.146Z,2.90
2023-01-17T13:17:23.533Z,3.90
2023-01-17T13:22:27.454Z,4.00
2023-01-17T13:27:40.022Z,2.43
2023-01-17T13:33:04.934Z,2.80
2023-01-17T13:38:35.503Z,3.63
2023-01-17T13:43:41.194Z,3.70
2023-01-17T13:48:45.488Z,4.23
2023-01-17T13:53:49.009Z,2.47
2023-01-17T13:59:02.829Z,3.27
2023-01-17T14:04:08.985Z,1.50
2023-01-17T14:09:22.886Z,3.60
2023-01-17T14:14:52.053Z,2.30
2023-01-17T14:20:00.262Z,2.27
2023-01-17T14:25:14.987Z,1.70
2023-01-17T14:30:22.121Z,3.00
2023-01-17T14:35:30.014Z,2.53
2023-01-17T14:40:39.471Z,3.83
2023-01-17T14:45:44.444Z,3.50
2023-01-17T14:50:49.866Z,2.30
2023-01-17T14:55:57.759Z,2.17
2023-01-17T15:01:03.510Z,2.60
2023-01-17T15:06:13.117Z,6.30
2023-01-17T15:11:22.795Z,2.53
2023-01-17T15:16:27.516Z,2.87
2023-01-17T15:21:35.510Z,3.83
2023-01-17T15:26:44.173Z,2.87
2023-01-17T15:31:49.615Z,3.70
2023-01-17T15:36:56.884Z,2.93
2023-01-17T15:42:03.342Z,2.57
2023-01-17T15:47:07.707Z,2.50
2023-01-17T15:52:17.290Z,4.20
2023-01-17T15:57:25.139Z,7.37
2023-01-17T16:02:38.686Z,10.70
2023-01-17T16:07:43.057Z,8.00
2023-01-17T16:12:46.477Z,5.90
2023-01-17T16:17:52.118Z,11.50
2023-01-17T16:22:56.585Z,9.50
2023-01-17T16:28:00.090Z,7.47
2023-01-17T16:33:05.256Z,7.17
2023-01-17T16:38:12.105Z,10.90
2023-01-17T16:43:16.369Z,11.70
2023-01-17T16:48:19.721Z,8.27
2023-01-17T16:53:25.649Z,5.93
2023-01-17T16:58:28.606Z,4.80
2023-01-17T17:03:31.578Z,5.50
2023-01-17T17:08:36.996Z,4.37
2023-01-17T17:13:39.915Z,6.90
2023-01-17T17:18:44.004Z,7.47
2023-01-17T17:23:50.930Z,13.70
2023-01-17T17:28:54.496Z,8.47
2023-01-17T17:34:01.307Z,10.27
2023-01-17T17:39:09.254Z,6.17
2023-01-17T17:44:12.530Z,25.53
2023-01-17T17:49:16.897Z,11.87
2023-01-17T17:54:22.088Z,19.30
2023-01-17T17:59:25.007Z,20.33
2023-01-17T18:04:28.384Z,11.33
2023-01-17T18:09:32.710Z,10.80
2023-01-17T18:14:36.186Z,10.13
2023-01-17T18:19:39.161Z,7.60
2023-01-17T18:24:43.448Z,8.20
2023-01-17T18:29:46.309Z,11.73
2023-01-17T18:34:49.268Z,14.53
2023-01-17T18:39:53.583Z,15.30
2023-01-17T18:44:56.524Z,13.63
2023-01-17T18:49:59.420Z,13.17
2023-01-17T18:55:03.679Z,17.33
2023-01-17T19:00:07.555Z,16.60
2023-01-17T19:05:11.920Z,24.97
2023-01-17T19:10:19.694Z,20.70
2023-01-17T19:15:22.817Z,27.33
2023-01-17T19:20:25.941Z,32.33
2023-01-17T19:25:30.442Z,32.40
2023-01-17T19:30:34.316Z,31.83
2023-01-17T19:35:37.965Z,28.43
2023-01-17T19:40:42.293Z,25.87
2023-01-17T19:45:45.541Z,28.30
2023-01-17T19:50:48.749Z,24.40
2023-01-17T19:55:52.979Z,20.93
2023-01-17T20:00:56.030Z,25.80
2023-01-17T20:05:59.273Z,29.70
2023-01-17T20:11:04.800Z,27.13
2023-01-17T20:16:10.108Z,34.67
2023-01-17T20:21:14.610Z,21.80
2023-01-17T20:26:20.539Z,29.27
2023-01-17T20:31:25.432Z,36.20
2023-01-17T20:36:29.999Z,40.30
2023-01-17T20:41:35.972Z,32.20
2023-01-17T20:46:41.298Z,29.20
2023-01-17T20:51:45.425Z,29.27
2023-01-17T20:56:49.705Z,37.50
2023-01-17T21:01:52.831Z,33.30
2023-01-17T21:06:56.338Z,33.87
2023-01-17T21:12:01.397Z,29.67
2023-01-17T21:17:04.413Z,29.67
2023-01-17T21:22:07.382Z,31.70
2023-01-17T21:27:12.933Z,31.40
2023-01-17T21:32:17.280Z,34.10
2023-01-17T21:37:20.196Z,31.57
2023-01-17T21:42:24.561Z,32.43
2023-01-17T21:47:27.470Z,31.67
2023-01-17T21:52:31.658Z,37.23
2023-01-17T21:57:53.223Z,29.17
2023-01-17T22:02:58.726Z,30.10
2023-01-17T22:08:15.353Z,29.63
2023-01-17T22:13:19.851Z,31.53
2023-01-17T22:18:23.409Z,36.50
2023-01-17T22:23:26.831Z,32.47
2023-01-17T22:28:32.793Z,43.80
2023-01-17T22:33:35.761Z,28.40
2023-01-17T22:38:38.661Z,27.97
2023-01-17T22:43:44.687Z,31.10
2023-01-17T22:48:48.078Z,32.27
2023-01-17T22:53:53.214Z,25.80
2023-01-17T22:58:58.448Z,25.27
2023-01-17T23:04:03.711Z,30.73
2023-01-17T23:09:08.505Z,24.50
2023-01-17T23:14:15.779Z,22.07
2023-01-17T23:19:24.597Z,20.87
2023-01-17T23:24:27.489Z,25.77
2023-01-17T23:29:31.757Z,24.10
2023-01-17T23:34:34.668Z,27.27
2023-01-17T23:39:37.556Z,25.13
2023-01-17T23:44:41.839Z,26.07
2023-01-17T23:49:45.477Z,25.50
2023-01-17T23:54:49.122Z,24.40
2023-01-17T23:59:53.363Z,35.90
